Aeroporto :
LOGIN :

Iscrizione | Disclaimer

   EN    FR    IT 

 










Sommario :    VFR   VFR Marginale   IFR   IFR Intensivo   IFR Molto Intensivo
Visibilità : 
Base nubi : 
>= 8 km
>= 3000ft
5 / 8 km
1000 / 3000 ft
1500m / 5 km
500 / 1000 ft
800 / 1500m
200 / 500 ft
< 800m
< 200 ft
Simboli :   Temporali  Nebbia  Neve Forte  Precipitazioni Forti  Vento > 20 kt
SIGMETs :   Varie  Temporali  Ghiacco  Turbolenza  Onda orograficha  Ceneri Vulcaniche






- Altitudine del aeroporto : 1187 ft


LIBV - Gioia del Colle Bari

ULTIMO METAR :
  • 010555Z 18013KT 7000 FEW005 13/11 Q1010 RMK OVC BKN150 VIS MIN 5000SW WIND THR32 19013KT WIND THR14 /////KT WHT

METARs OBSOLETI :
  • 010455Z 17010KT 5000 BR FEW003 13/12 Q1010
  • 010355Z 16009KT 4500 BR FEW002 13/12 Q1010 RMK OVC BKN160 VIS MIN 3000SW WIND THR32 16009KT WIND THR14 16008KT YLO
  • 010255Z 17007KT 3500 BR BKN002 13/12 Q1010 RMK OVC BKN200 VIS MIN 2000SW WIND THR32 17008KT WIND THR14 /////KT AMB
  • 010155Z 16010KT 2500 BR BKN002 12/12 Q1010

TAF TAF LIBV
Valido dal 01 a 06 ore il 01 a 15 ore UTC


010500Z 0106/0115 15015KT 3000 BR SCT005
BECMG 0107/0109 CAVOK



MetMap, La meteo Aeronautica in un colpo d'occhio ! - Copyright ORBIFLY Dicembre 2007 - Disclaimer

ORBIFLY MET'MAP TEAM :

Programmazione e sviluppo : Alexandra Zaïnal
Concezione : Baudouin d'Aumeries
Supporto tecnico e logistico : Manuel Goepfert
Aiuto : Marc-Olivier Méhu
Aiuto per la traduzione : Arnaldo La Scala




FONTI E CREDITI :

   NOAA